createdAt,value
2022-10-22T00:00:37.845Z,28.65
2022-10-22T00:03:39.296Z,28.33
2022-10-22T00:06:40.849Z,28.90
2022-10-22T00:09:42.220Z,26.38
2022-10-22T00:12:43.621Z,27.52
2022-10-22T00:15:45.053Z,30.10
2022-10-22T00:18:46.425Z,28.80
2022-10-22T00:21:47.793Z,27.98
2022-10-22T00:24:49.149Z,30.10
2022-10-22T00:27:50.521Z,26.10
2022-10-22T00:30:59.965Z,27.85
2022-10-22T00:34:01.837Z,26.38
2022-10-22T00:37:03.299Z,30.13
2022-10-22T00:40:05.095Z,24.10
2022-10-22T00:43:06.604Z,30.40
2022-10-22T00:46:07.946Z,29.38
2022-10-22T00:49:09.347Z,28.08
2022-10-22T00:52:11.578Z,30.23
2022-10-22T00:55:14.145Z,34.45
2022-10-22T00:58:16.185Z,33.80
2022-10-22T01:01:22.540Z,32.13
2022-10-22T01:04:24.294Z,29.20
2022-10-22T01:07:25.959Z,31.58
2022-10-22T01:10:55.071Z,36.63
2022-10-22T01:14:23.622Z,36.50
2022-10-22T01:17:34.992Z,36.33
2022-10-22T01:20:51.195Z,34.13
2022-10-22T01:24:20.479Z,39.15
2022-10-22T01:27:34.948Z,37.35
2022-10-22T01:30:38.257Z,40.25
2022-10-22T01:36:43.783Z,39.60
2022-10-22T01:39:47.502Z,40.15
2022-10-22T01:43:15.284Z,38.88
2022-10-22T01:46:18.141Z,39.55
2022-10-22T01:49:30.346Z,44.13
2022-10-22T01:53:08.749Z,35.72
2022-10-22T01:56:16.608Z,44.33
2022-10-22T01:59:26.805Z,52.85
2022-10-22T02:05:59.843Z,43.10
2022-10-22T02:09:03.200Z,38.20
2022-10-22T02:12:07.052Z,34.25
2022-10-22T02:15:11.462Z,38.05
2022-10-22T02:18:15.230Z,40.92
2022-10-22T02:21:16.819Z,41.92
2022-10-22T02:24:18.914Z,38.60
2022-10-22T02:27:31.706Z,38.63
2022-10-22T02:30:35.674Z,34.97
2022-10-22T02:33:42.210Z,41.08
2022-10-22T02:36:48.092Z,41.75
2022-10-22T02:39:52.902Z,39.80
2022-10-22T02:42:54.303Z,36.37
2022-10-22T02:45:55.678Z,42.58
2022-10-22T02:48:57.010Z,43.38
2022-10-22T02:51:58.326Z,48.60
2022-10-22T02:54:59.647Z,39.40
2022-10-22T02:58:00.959Z,43.95
2022-10-22T03:01:02.448Z,43.13
2022-10-22T03:04:04.199Z,42.30
2022-10-22T03:07:05.608Z,39.33
2022-10-22T03:10:07.458Z,37.28
2022-10-22T03:13:08.903Z,42.55
2022-10-22T03:16:10.253Z,45.75
2022-10-22T03:19:11.571Z,39.20
2022-10-22T03:22:23.436Z,38.58
2022-10-22T03:25:27.492Z,34.85
2022-10-22T03:28:30.667Z,40.10
2022-10-22T03:31:32.040Z,33.65
2022-10-22T03:34:33.432Z,43.33
2022-10-22T03:37:36.032Z,43.72
2022-10-22T03:40:37.920Z,46.42
2022-10-22T03:43:39.477Z,44.03
2022-10-22T03:46:40.876Z,42.65
2022-10-22T03:49:42.228Z,41.58
2022-10-22T03:52:43.553Z,44.10
2022-10-22T03:55:44.878Z,41.38
2022-10-22T03:58:46.214Z,48.65
2022-10-22T04:01:47.558Z,46.13
2022-10-22T04:04:48.926Z,53.78
2022-10-22T04:07:50.269Z,45.28
2022-10-22T04:10:51.865Z,36.92
2022-10-22T04:13:53.213Z,51.72
2022-10-22T04:16:54.605Z,36.47
2022-10-22T04:19:55.970Z,34.25
2022-10-22T04:22:57.282Z,52.35
2022-10-22T04:26:00.054Z,189.75
2022-10-22T04:29:01.567Z,210.60
2022-10-22T04:32:02.910Z,78.45
2022-10-22T04:35:04.762Z,31.55
2022-10-22T04:38:06.122Z,83.40
2022-10-22T04:41:19.355Z,145.60
2022-10-22T04:44:20.686Z,203.45
2022-10-22T04:47:22.195Z,141.15
2022-10-22T04:50:23.543Z,257.42
2022-10-22T04:53:27.000Z,165.52
2022-10-22T04:56:30.154Z,154.55
2022-10-22T04:59:31.483Z,91.95
2022-10-22T05:02:32.847Z,122.97
2022-10-22T05:05:34.171Z,81.05
2022-10-22T05:08:36.078Z,70.28
2022-10-22T05:11:38.800Z,97.65
2022-10-22T05:14:43.966Z,151.50
2022-10-22T05:17:46.218Z,157.70
2022-10-22T05:20:47.545Z,134.15
2022-10-22T05:23:50.343Z,138.50
2022-10-22T05:26:56.856Z,139.73
2022-10-22T05:29:58.296Z,126.32
2022-10-22T05:32:59.692Z,102.60
2022-10-22T05:36:02.119Z,121.30
2022-10-22T05:39:03.965Z,63.97
2022-10-22T05:42:05.360Z,53.88
2022-10-22T05:45:06.912Z,50.55
2022-10-22T05:48:09.473Z,53.88
2022-10-22T05:51:13.077Z,45.87
2022-10-22T05:54:19.601Z,39.50
2022-10-22T05:57:20.938Z,37.22
2022-10-22T06:00:22.277Z,34.83
2022-10-22T06:03:23.585Z,34.08
2022-10-22T06:06:30.108Z,54.50
2022-10-22T06:12:42.909Z,39.58
2022-10-22T06:15:44.486Z,35.17
2022-10-22T06:18:45.934Z,37.20
2022-10-22T06:21:48.409Z,34.90
2022-10-22T06:24:49.742Z,37.13
2022-10-22T06:27:51.070Z,40.08
2022-10-22T06:30:52.431Z,32.15
2022-10-22T06:33:54.223Z,36.63
2022-10-22T06:36:55.710Z,35.10
2022-10-22T06:39:57.047Z,33.80
2022-10-22T06:43:01.694Z,36.60
2022-10-22T06:46:05.861Z,39.33
2022-10-22T06:49:07.248Z,38.45
2022-10-22T06:52:08.599Z,44.33
2022-10-22T06:55:10.499Z,40.78
2022-10-22T06:58:11.844Z,41.10
2022-10-22T07:01:14.594Z,37.90
2022-10-22T07:04:16.438Z,42.70
2022-10-22T07:07:17.974Z,41.20
2022-10-22T07:10:19.764Z,41.97
2022-10-22T07:13:22.443Z,40.07
2022-10-22T07:16:28.115Z,46.10
2022-10-22T07:19:33.919Z,39.30
2022-10-22T07:22:35.278Z,38.85
2022-10-22T07:25:36.684Z,39.13
2022-10-22T07:28:38.199Z,37.67
2022-10-22T07:31:39.560Z,40.38
2022-10-22T07:34:43.138Z,35.90
2022-10-22T07:37:45.394Z,40.10
2022-10-22T07:40:46.728Z,38.05
2022-10-22T07:43:48.142Z,36.40
2022-10-22T07:46:49.464Z,33.65
2022-10-22T07:49:50.808Z,33.88
2022-10-22T07:52:53.831Z,33.17
2022-10-22T07:55:57.641Z,35.35
2022-10-22T07:58:59.096Z,35.60
2022-10-22T08:02:00.571Z,30.15
2022-10-22T08:05:01.926Z,31.10
2022-10-22T08:08:03.320Z,30.95
2022-10-22T08:11:04.752Z,27.58
2022-10-22T08:14:06.101Z,29.35
2022-10-22T08:17:07.444Z,22.50
2022-10-22T08:20:09.210Z,20.38
2022-10-22T08:23:10.634Z,21.25
2022-10-22T08:26:11.991Z,23.65
2022-10-22T08:29:13.354Z,20.73
2022-10-22T08:32:14.973Z,19.35
2022-10-22T08:35:17.665Z,16.13
2022-10-22T08:38:19.433Z,15.23
2022-10-22T08:41:23.111Z,16.80
2022-10-22T08:44:45.456Z,17.10
2022-10-22T08:48:26.691Z,15.20
2022-10-22T08:51:32.803Z,15.57
2022-10-22T08:54:56.013Z,13.32
2022-10-22T08:58:03.894Z,12.75
2022-10-22T09:01:14.863Z,14.05
2022-10-22T09:04:28.727Z,14.50
2022-10-22T09:07:30.099Z,14.02
2022-10-22T09:10:36.859Z,13.13
2022-10-22T09:13:39.988Z,11.10
2022-10-22T09:16:59.993Z,10.23
2022-10-22T09:20:13.359Z,12.50
2022-10-22T09:23:20.663Z,10.38
2022-10-22T09:26:22.044Z,13.23
2022-10-22T09:29:31.196Z,9.63
2022-10-22T09:32:32.780Z,10.10
2022-10-22T09:35:46.727Z,9.82
2022-10-22T09:38:51.269Z,9.73
2022-10-22T09:41:52.697Z,8.43
2022-10-22T09:44:59.437Z,11.95
2022-10-22T09:48:18.543Z,8.68
2022-10-22T09:51:48.065Z,10.68
2022-10-22T09:54:52.419Z,13.40
2022-10-22T09:57:56.678Z,9.68
2022-10-22T10:01:00.589Z,7.80
2022-10-22T10:04:13.474Z,9.20
2022-10-22T10:07:22.024Z,9.73
2022-10-22T10:10:41.793Z,7.45
2022-10-22T10:13:52.250Z,7.22
2022-10-22T10:17:01.671Z,6.38
2022-10-22T10:20:15.290Z,6.85
2022-10-22T10:23:36.184Z,7.57
2022-10-22T10:26:48.094Z,9.48
2022-10-22T10:29:58.574Z,5.85
2022-10-22T10:33:22.010Z,4.00
2022-10-22T10:39:41.611Z,6.03
2022-10-22T10:42:49.246Z,7.43
2022-10-22T10:45:59.555Z,7.82
2022-10-22T10:49:19.039Z,7.68
2022-10-22T10:52:31.760Z,8.25
2022-10-22T10:55:41.925Z,7.97
2022-10-22T10:59:02.949Z,8.35
2022-10-22T11:02:10.286Z,7.10
2022-10-22T11:05:32.146Z,9.32
2022-10-22T11:08:38.544Z,7.65
2022-10-22T11:11:47.207Z,9.30
2022-10-22T11:15:11.117Z,4.30
2022-10-22T11:18:37.456Z,6.53
2022-10-22T11:21:45.640Z,3.30
2022-10-22T11:24:56.380Z,9.27
2022-10-22T11:28:13.265Z,8.55
2022-10-22T11:31:17.327Z,6.55
2022-10-22T11:34:39.637Z,8.77
2022-10-22T11:37:45.499Z,8.23
2022-10-22T11:41:00.317Z,7.82
2022-10-22T11:44:22.841Z,7.97
2022-10-22T11:47:25.827Z,7.73
2022-10-22T11:53:35.326Z,7.88
2022-10-22T11:56:38.655Z,5.65
2022-10-22T11:59:47.289Z,8.10
2022-10-22T12:03:03.046Z,5.47
2022-10-22T12:06:10.339Z,6.50
2022-10-22T12:09:12.756Z,4.93
2022-10-22T12:12:15.633Z,8.05
2022-10-22T12:15:27.436Z,5.85
2022-10-22T12:18:42.538Z,6.50
2022-10-22T12:21:48.717Z,8.25
2022-10-22T12:24:53.795Z,5.68
2022-10-22T12:27:58.574Z,10.25
2022-10-22T12:30:59.934Z,6.68
2022-10-22T12:34:01.443Z,4.25
2022-10-22T12:37:04.483Z,6.25
2022-10-22T12:43:29.743Z,6.63
2022-10-22T12:46:34.513Z,7.55
2022-10-22T12:49:42.570Z,8.13
2022-10-22T12:52:44.056Z,8.00
2022-10-22T12:55:52.160Z,7.30
2022-10-22T12:59:00.278Z,8.20
2022-10-22T13:02:02.444Z,6.18
2022-10-22T13:05:14.788Z,8.50
2022-10-22T13:11:34.696Z,5.70
2022-10-22T13:14:38.071Z,9.07
2022-10-22T13:17:41.596Z,6.68
2022-10-22T13:20:50.696Z,5.85
2022-10-22T13:24:03.641Z,8.52
2022-10-22T13:27:09.346Z,6.10
2022-10-22T13:30:19.429Z,7.40
2022-10-22T13:33:39.465Z,9.48
2022-10-22T13:36:40.841Z,7.22
2022-10-22T13:39:42.190Z,8.38
2022-10-22T13:42:43.895Z,6.50
2022-10-22T13:45:47.670Z,5.28
2022-10-22T13:48:50.843Z,12.77
2022-10-22T13:51:52.256Z,7.03
2022-10-22T13:54:53.589Z,8.48
2022-10-22T13:58:10.176Z,9.25
2022-10-22T14:01:20.982Z,8.82
2022-10-22T14:04:22.375Z,8.02
2022-10-22T14:07:23.731Z,6.30
2022-10-22T14:10:25.622Z,5.63
2022-10-22T14:13:26.991Z,6.20
2022-10-22T14:16:28.944Z,8.00
2022-10-22T14:19:30.624Z,7.45
2022-10-22T14:22:32.015Z,7.65
2022-10-22T14:25:33.370Z,7.35
2022-10-22T14:28:41.356Z,6.38
2022-10-22T14:31:53.209Z,7.50
2022-10-22T14:34:54.543Z,5.07
2022-10-22T14:37:55.888Z,8.10
2022-10-22T14:40:59.296Z,8.35
2022-10-22T14:44:00.656Z,8.38
2022-10-22T14:47:02.061Z,7.90
2022-10-22T14:50:03.848Z,8.65
2022-10-22T14:53:05.254Z,6.18
2022-10-22T14:56:06.904Z,6.10
2022-10-22T14:59:08.260Z,9.15
2022-10-22T15:02:12.564Z,7.05
2022-10-22T15:05:14.958Z,7.00
2022-10-22T15:08:16.341Z,7.78
2022-10-22T15:11:17.689Z,5.85
2022-10-22T15:14:19.077Z,7.72
2022-10-22T15:17:20.553Z,7.32
2022-10-22T15:20:21.873Z,6.55
2022-10-22T15:23:23.289Z,5.97
2022-10-22T15:26:24.706Z,5.30
2022-10-22T15:29:26.123Z,4.60
2022-10-22T15:32:28.007Z,6.43
2022-10-22T15:35:29.377Z,9.25
2022-10-22T15:41:37.727Z,9.50
2022-10-22T15:44:39.092Z,6.60
2022-10-22T15:47:40.763Z,4.30
2022-10-22T15:50:42.311Z,7.40
2022-10-22T15:53:44.245Z,7.18
2022-10-22T15:56:46.257Z,5.35
2022-10-22T15:59:47.757Z,5.35
2022-10-22T16:02:49.156Z,9.70
2022-10-22T16:05:51.870Z,10.82
2022-10-22T16:08:54.032Z,21.20
2022-10-22T16:11:55.890Z,12.23
2022-10-22T16:14:57.235Z,9.48
2022-10-22T16:17:58.580Z,9.05
2022-10-22T16:20:59.917Z,4.72
2022-10-22T16:24:05.998Z,5.63
2022-10-22T16:27:09.468Z,10.90
2022-10-22T16:30:11.303Z,11.15
2022-10-22T16:33:12.640Z,6.97
2022-10-22T16:36:17.108Z,7.63
2022-10-22T16:39:18.474Z,6.20
2022-10-22T16:42:19.804Z,10.15
2022-10-22T16:45:21.159Z,13.35
2022-10-22T16:48:22.580Z,10.13
2022-10-22T16:51:26.380Z,10.77
2022-10-22T16:54:27.876Z,8.30
2022-10-22T16:57:29.276Z,10.20
2022-10-22T17:00:30.965Z,10.55
2022-10-22T17:03:32.314Z,10.25
2022-10-22T17:06:33.687Z,13.50
2022-10-22T17:09:35.117Z,19.15
2022-10-22T17:12:36.709Z,11.02
2022-10-22T17:15:38.061Z,9.88
2022-10-22T17:18:40.517Z,8.23
2022-10-22T17:21:42.581Z,7.22
2022-10-22T17:24:43.970Z,9.55
2022-10-22T17:27:45.413Z,8.68
2022-10-22T17:30:46.778Z,9.43
2022-10-22T17:33:49.825Z,7.97
2022-10-22T17:39:52.532Z,13.30
2022-10-22T17:42:53.906Z,14.70
2022-10-22T17:46:04.432Z,8.77
2022-10-22T17:49:12.071Z,7.35
2022-10-22T17:52:14.379Z,10.68
2022-10-22T17:55:15.771Z,11.60
2022-10-22T17:58:17.127Z,7.88
2022-10-22T18:01:28.119Z,9.07
2022-10-22T18:04:31.312Z,10.38
2022-10-22T18:10:39.764Z,11.68
2022-10-22T18:13:41.359Z,9.07
2022-10-22T18:16:42.713Z,12.18
2022-10-22T18:19:44.037Z,11.50
2022-10-22T18:22:45.384Z,10.13
2022-10-22T18:25:46.918Z,9.75
2022-10-22T18:28:48.725Z,10.70
2022-10-22T18:31:50.064Z,10.07
2022-10-22T18:34:51.398Z,13.35
2022-10-22T18:37:52.697Z,10.63
2022-10-22T18:40:54.041Z,15.27
2022-10-22T18:43:58.193Z,9.23
2022-10-22T18:46:59.522Z,15.95
2022-10-22T18:50:00.853Z,14.07
2022-10-22T18:53:02.230Z,17.92
2022-10-22T18:56:08.734Z,14.93
2022-10-22T18:59:28.402Z,14.00
2022-10-22T19:02:29.730Z,10.63
2022-10-22T19:05:31.418Z,15.60
2022-10-22T19:08:34.426Z,14.73
2022-10-22T19:14:37.195Z,12.00
2022-10-22T19:17:38.598Z,12.18
2022-10-22T19:20:39.990Z,10.73
2022-10-22T19:23:41.397Z,14.00
2022-10-22T19:26:42.943Z,13.93
2022-10-22T19:29:45.799Z,12.07
2022-10-22T19:32:47.427Z,12.18
2022-10-22T19:35:48.771Z,14.48
2022-10-22T19:38:50.546Z,12.13
2022-10-22T19:41:51.891Z,14.63
2022-10-22T19:44:53.215Z,15.85
2022-10-22T19:47:54.547Z,12.43
2022-10-22T19:51:08.897Z,17.73
2022-10-22T19:54:12.923Z,24.33
2022-10-22T19:57:17.179Z,33.50
2022-10-22T20:00:18.528Z,17.98
2022-10-22T20:03:20.809Z,15.32
2022-10-22T20:06:22.151Z,17.30
2022-10-22T20:09:23.622Z,14.60
2022-10-22T20:12:25.033Z,31.20
2022-10-22T20:15:26.421Z,23.75
2022-10-22T20:18:27.798Z,18.17
2022-10-22T20:21:29.581Z,21.98
2022-10-22T20:24:30.973Z,21.15
2022-10-22T20:27:32.293Z,23.95
2022-10-22T20:30:33.814Z,29.63
2022-10-22T20:33:35.207Z,45.30
2022-10-22T20:36:36.613Z,27.05
2022-10-22T20:39:38.001Z,21.50
2022-10-22T20:42:39.803Z,18.90
2022-10-22T20:45:41.405Z,18.88
2022-10-22T20:48:42.829Z,16.15
2022-10-22T20:51:44.534Z,18.02
2022-10-22T20:54:45.998Z,16.27
2022-10-22T20:57:48.068Z,14.13
2022-10-22T21:00:50.005Z,14.77
2022-10-22T21:03:52.371Z,16.92
2022-10-22T21:06:54.331Z,14.43
2022-10-22T21:09:55.682Z,14.93
2022-10-22T21:12:57.159Z,16.95
2022-10-22T21:15:59.252Z,16.27
2022-10-22T21:19:00.999Z,15.38
2022-10-22T21:22:02.913Z,15.00
2022-10-22T21:25:04.536Z,14.15
2022-10-22T21:28:05.856Z,18.83
2022-10-22T21:31:09.696Z,26.75
2022-10-22T21:34:11.527Z,23.67
2022-10-22T21:37:12.895Z,17.23
2022-10-22T21:40:14.240Z,17.98
2022-10-22T21:43:16.524Z,20.95
2022-10-22T21:46:20.501Z,17.15
2022-10-22T21:49:21.861Z,14.70
2022-10-22T21:52:23.328Z,15.98
2022-10-22T21:55:24.740Z,21.25
2022-10-22T21:58:26.137Z,16.65
2022-10-22T22:01:27.624Z,15.48
2022-10-22T22:04:29.092Z,20.50
2022-10-22T22:07:30.453Z,18.05
2022-10-22T22:10:31.839Z,19.90
2022-10-22T22:13:33.609Z,18.33
2022-10-22T22:16:35.280Z,18.77
2022-10-22T22:19:38.474Z,22.20
2022-10-22T22:22:40.155Z,22.95
2022-10-22T22:25:41.642Z,22.05
2022-10-22T22:28:43.017Z,21.90
2022-10-22T22:31:44.362Z,24.65
2022-10-22T22:34:45.682Z,22.10
2022-10-22T22:37:47.023Z,24.52
2022-10-22T22:40:48.381Z,24.52
2022-10-22T22:43:49.903Z,23.17
2022-10-22T22:46:51.254Z,24.55
2022-10-22T22:49:52.602Z,20.65
2022-10-22T22:52:53.971Z,28.63
2022-10-22T22:56:26.418Z,20.42
2022-10-22T22:59:27.806Z,18.60
2022-10-22T23:02:29.152Z,20.38
2022-10-22T23:05:30.495Z,24.05
2022-10-22T23:08:32.255Z,24.08
2022-10-22T23:11:33.860Z,23.52
2022-10-22T23:14:35.184Z,24.83
2022-10-22T23:20:42.764Z,23.33
2022-10-22T23:23:53.475Z,26.38
2022-10-22T23:26:56.208Z,20.02
2022-10-22T23:29:57.547Z,31.88
2022-10-22T23:32:58.879Z,27.90
2022-10-22T23:36:01.689Z,19.67
2022-10-22T23:39:09.616Z,24.45
2022-10-22T23:42:10.984Z,20.77
2022-10-22T23:45:12.345Z,21.70
2022-10-22T23:48:13.680Z,25.38
2022-10-22T23:51:17.158Z,22.95
2022-10-22T23:54:18.961Z,22.17
2022-10-22T23:57:20.352Z,23.63
